sensor_id;sensor_type;location;lat;lon;timestamp;pressure;altitude;pressure_sealevel;temperature;humidity
52469;BME280;38381;53.688;10.776;2023-03-12T00:03:45;100704.50;;;1.02;93.92
52469;BME280;38381;53.688;10.776;2023-03-12T00:08:47;100711.34;;;1.03;93.11
52469;BME280;38381;53.688;10.776;2023-03-12T00:13:52;100716.59;;;1.06;92.89
52469;BME280;38381;53.688;10.776;2023-03-12T00:18:54;100716.47;;;1.03;92.98
52469;BME280;38381;53.688;10.776;2023-03-12T00:23:55;100718.09;;;1.00;93.61
52469;BME280;38381;53.688;10.776;2023-03-12T00:28:55;100716.47;;;1.03;93.36
52469;BME280;38381;53.688;10.776;2023-03-12T00:33:56;100710.03;;;1.11;93.16
52469;BME280;38381;53.688;10.776;2023-03-12T00:38:57;100717.88;;;1.15;92.65
52469;BME280;38381;53.688;10.776;2023-03-12T00:43:58;100714.44;;;1.15;93.29
52469;BME280;38381;53.688;10.776;2023-03-12T00:48:59;100710.88;;;1.11;93.17
52469;BME280;38381;53.688;10.776;2023-03-12T00:53:59;100712.88;;;1.18;93.23
52469;BME280;38381;53.688;10.776;2023-03-12T00:59:00;100719.34;;;1.10;93.37
52469;BME280;38381;53.688;10.776;2023-03-12T01:04:01;100716.25;;;1.17;93.53
52469;BME280;38381;53.688;10.776;2023-03-12T01:09:03;100715.84;;;1.08;93.84
52469;BME280;38381;53.688;10.776;2023-03-12T01:14:06;100718.19;;;1.04;93.93
52469;BME280;38381;53.688;10.776;2023-03-12T01:19:07;100723.31;;;1.04;93.40
52469;BME280;38381;53.688;10.776;2023-03-12T01:24:07;100710.06;;;0.93;93.88
52469;BME280;38381;53.688;10.776;2023-03-12T01:29:08;100730.91;;;1.02;94.36
52469;BME280;38381;53.688;10.776;2023-03-12T01:34:10;100723.97;;;0.99;93.66
52469;BME280;38381;53.688;10.776;2023-03-12T01:39:11;100726.81;;;1.06;93.99
52469;BME280;38381;53.688;10.776;2023-03-12T01:44:13;100733.03;;;1.12;93.02
52469;BME280;38381;53.688;10.776;2023-03-12T01:49:15;100730.19;;;1.05;93.41
52469;BME280;38381;53.688;10.776;2023-03-12T01:59:46;100730.50;;;0.93;93.16
52469;BME280;38381;53.688;10.776;2023-03-12T02:04:48;100732.03;;;0.89;93.70
52469;BME280;38381;53.688;10.776;2023-03-12T02:09:51;100734.00;;;0.95;93.42
52469;BME280;38381;53.688;10.776;2023-03-12T02:14:52;100736.47;;;0.93;93.37
52469;BME280;38381;53.688;10.776;2023-03-12T02:25:25;100732.56;;;0.82;92.94
52469;BME280;38381;53.688;10.776;2023-03-12T02:30:28;100745.84;;;0.75;92.94
52469;BME280;38381;53.688;10.776;2023-03-12T02:35:29;100736.03;;;0.65;92.67
52469;BME280;38381;53.688;10.776;2023-03-12T02:40:41;100747.19;;;0.67;92.98
52469;BME280;38381;53.688;10.776;2023-03-12T02:45:43;100753.75;;;0.62;93.25
52469;BME280;38381;53.688;10.776;2023-03-12T02:50:43;100756.53;;;0.48;93.22
52469;BME280;38381;53.688;10.776;2023-03-12T02:55:43;100752.66;;;0.56;93.42
52469;BME280;38381;53.688;10.776;2023-03-12T03:00:44;100758.59;;;0.55;93.92
52469;BME280;38381;53.688;10.776;2023-03-12T03:05:44;100769.50;;;0.53;93.62
52469;BME280;38381;53.688;10.776;2023-03-12T03:10:44;100766.06;;;0.52;94.06
52469;BME280;38381;53.688;10.776;2023-03-12T03:15:45;100760.47;;;0.59;93.60
52469;BME280;38381;53.688;10.776;2023-03-12T03:20:56;100767.97;;;0.56;94.23
52469;BME280;38381;53.688;10.776;2023-03-12T03:25:57;100762.22;;;0.60;93.85
52469;BME280;38381;53.688;10.776;2023-03-12T03:30:58;100772.22;;;0.56;93.85
52469;BME280;38381;53.688;10.776;2023-03-12T03:36:01;100773.91;;;0.55;93.63
52469;BME280;38381;53.688;10.776;2023-03-12T03:41:02;100774.97;;;0.60;93.59
52469;BME280;38381;53.688;10.776;2023-03-12T03:46:04;100779.88;;;0.56;93.77
52469;BME280;38381;53.688;10.776;2023-03-12T03:51:06;100777.16;;;0.53;93.82
52469;BME280;38381;53.688;10.776;2023-03-12T03:56:09;100777.81;;;0.49;94.18
52469;BME280;38381;53.688;10.776;2023-03-12T04:01:12;100783.19;;;0.55;93.40
52469;BME280;38381;53.688;10.776;2023-03-12T04:06:13;100784.38;;;0.44;93.92
52469;BME280;38381;53.688;10.776;2023-03-12T04:11:19;100787.50;;;0.38;93.71
52469;BME280;38381;53.688;10.776;2023-03-12T04:16:20;100791.66;;;0.36;93.97
52469;BME280;38381;53.688;10.776;2023-03-12T04:21:20;100781.75;;;0.42;93.58
52469;BME280;38381;53.688;10.776;2023-03-12T04:26:21;100772.50;;;0.26;94.25
52469;BME280;38381;53.688;10.776;2023-03-12T04:31:21;100767.09;;;0.20;94.63
52469;BME280;38381;53.688;10.776;2023-03-12T04:36:22;100768.56;;;0.15;94.47
52469;BME280;38381;53.688;10.776;2023-03-12T04:41:22;100773.75;;;0.16;94.38
52469;BME280;38381;53.688;10.776;2023-03-12T04:46:23;100770.28;;;0.16;95.22
52469;BME280;38381;53.688;10.776;2023-03-12T04:51:23;100753.09;;;0.12;94.73
52469;BME280;38381;53.688;10.776;2023-03-12T04:56:24;100749.31;;;0.22;94.66
52469;BME280;38381;53.688;10.776;2023-03-12T05:01:28;100754.03;;;0.14;95.37
52469;BME280;38381;53.688;10.776;2023-03-12T05:06:29;100747.03;;;0.10;94.45
52469;BME280;38381;53.688;10.776;2023-03-12T05:11:30;100753.53;;;0.03;95.50
52469;BME280;38381;53.688;10.776;2023-03-12T05:16:30;100754.75;;;-0.07;95.04
52469;BME280;38381;53.688;10.776;2023-03-12T05:21:30;100757.94;;;-0.11;95.38
52469;BME280;38381;53.688;10.776;2023-03-12T05:26:31;100755.81;;;-0.19;96.50
52469;BME280;38381;53.688;10.776;2023-03-12T05:31:32;100765.56;;;-0.29;96.94
52469;BME280;38381;53.688;10.776;2023-03-12T05:36:34;100762.56;;;-0.38;96.50
52469;BME280;38381;53.688;10.776;2023-03-12T05:41:34;100754.69;;;-0.43;96.98
52469;BME280;38381;53.688;10.776;2023-03-12T05:46:35;100749.03;;;-0.37;97.88
52469;BME280;38381;53.688;10.776;2023-03-12T05:51:35;100762.56;;;-0.38;97.58
52469;BME280;38381;53.688;10.776;2023-03-12T05:56:36;100775.94;;;-0.42;97.58
52469;BME280;38381;53.688;10.776;2023-03-12T06:01:37;100777.09;;;-0.35;97.25
52469;BME280;38381;53.688;10.776;2023-03-12T06:06:38;100781.19;;;-0.39;97.74
52469;BME280;38381;53.688;10.776;2023-03-12T06:11:38;100777.84;;;-0.54;99.80
52469;BME280;38381;53.688;10.776;2023-03-12T06:16:39;100784.13;;;-0.48;99.65
52469;BME280;38381;53.688;10.776;2023-03-12T06:21:41;100788.34;;;-0.32;98.78
52469;BME280;38381;53.688;10.776;2023-03-12T06:26:41;100785.22;;;-0.26;99.39
52469;BME280;38381;53.688;10.776;2023-03-12T06:31:42;100786.00;;;-0.27;98.89
52469;BME280;38381;53.688;10.776;2023-03-12T06:36:43;100793.34;;;-0.33;100.00
52469;BME280;38381;53.688;10.776;2023-03-12T06:41:43;100789.19;;;-0.15;99.61
52469;BME280;38381;53.688;10.776;2023-03-12T06:46:44;100787.59;;;-0.13;99.30
52469;BME280;38381;53.688;10.776;2023-03-12T06:51:44;100783.97;;;-0.34;100.00
52469;BME280;38381;53.688;10.776;2023-03-12T06:56:45;100779.41;;;-0.24;99.44
52469;BME280;38381;53.688;10.776;2023-03-12T07:01:45;100775.50;;;-0.17;99.84
52469;BME280;38381;53.688;10.776;2023-03-12T07:06:45;100765.38;;;-0.15;100.00
52469;BME280;38381;53.688;10.776;2023-03-12T07:11:49;100763.63;;;-0.16;99.18
52469;BME280;38381;53.688;10.776;2023-03-12T07:16:50;100768.25;;;-0.26;99.82
52469;BME280;38381;53.688;10.776;2023-03-12T07:21:50;100762.38;;;-0.25;100.00
52469;BME280;38381;53.688;10.776;2023-03-12T07:26:50;100770.81;;;-0.26;100.00
52469;BME280;38381;53.688;10.776;2023-03-12T07:31:51;100761.75;;;-0.21;100.00
52469;BME280;38381;53.688;10.776;2023-03-12T07:36:51;100755.59;;;-0.24;100.00
52469;BME280;38381;53.688;10.776;2023-03-12T07:41:52;100754.84;;;-0.05;100.00
52469;BME280;38381;53.688;10.776;2023-03-12T07:46:52;100757.28;;;-0.25;100.00
52469;BME280;38381;53.688;10.776;2023-03-12T07:51:53;100763.78;;;-0.13;100.00
52469;BME280;38381;53.688;10.776;2023-03-12T07:56:54;100764.91;;;0.10;98.43
52469;BME280;38381;53.688;10.776;2023-03-12T08:01:54;100763.25;;;0.10;98.88
52469;BME280;38381;53.688;10.776;2023-03-12T08:06:55;100768.84;;;0.21;98.41
52469;BME280;38381;53.688;10.776;2023-03-12T08:11:55;100761.63;;;0.48;98.23
52469;BME280;38381;53.688;10.776;2023-03-12T08:16:57;100751.72;;;0.54;97.46
52469;BME280;38381;53.688;10.776;2023-03-12T08:21:57;100745.22;;;0.61;97.99
52469;BME280;38381;53.688;10.776;2023-03-12T08:26:58;100746.88;;;0.78;97.96
52469;BME280;38381;53.688;10.776;2023-03-12T08:31:59;100747.00;;;1.19;96.18
52469;BME280;38381;53.688;10.776;2023-03-12T08:36:59;100745.63;;;1.27;94.83
52469;BME280;38381;53.688;10.776;2023-03-12T08:42:00;100747.69;;;1.55;95.29
52469;BME280;38381;53.688;10.776;2023-03-12T08:47:00;100750.47;;;2.02;93.80
52469;BME280;38381;53.688;10.776;2023-03-12T08:52:01;100745.00;;;2.14;91.33
52469;BME280;38381;53.688;10.776;2023-03-12T08:57:01;100740.00;;;1.96;90.37
52469;BME280;38381;53.688;10.776;2023-03-12T09:02:02;100734.03;;;2.39;90.25
52469;BME280;38381;53.688;10.776;2023-03-12T09:07:02;100723.56;;;2.33;89.21
52469;BME280;38381;53.688;10.776;2023-03-12T09:12:04;100728.03;;;2.38;88.81
52469;BME280;38381;53.688;10.776;2023-03-12T09:17:04;100722.78;;;2.56;88.24
52469;BME280;38381;53.688;10.776;2023-03-12T09:22:05;100721.72;;;2.51;88.25
52469;BME280;38381;53.688;10.776;2023-03-12T09:27:05;100719.09;;;2.50;87.33
52469;BME280;38381;53.688;10.776;2023-03-12T09:32:06;100710.00;;;2.58;87.29
52469;BME280;38381;53.688;10.776;2023-03-12T09:37:07;100694.84;;;2.63;87.38
52469;BME280;38381;53.688;10.776;2023-03-12T09:42:17;100690.03;;;2.72;86.71
52469;BME280;38381;53.688;10.776;2023-03-12T09:47:28;100690.44;;;3.07;87.70
52469;BME280;38381;53.688;10.776;2023-03-12T09:52:35;100674.09;;;3.03;87.79
52469;BME280;38381;53.688;10.776;2023-03-12T09:57:38;100669.22;;;3.35;86.37
52469;BME280;38381;53.688;10.776;2023-03-12T10:07:47;100666.81;;;3.39;82.26
52469;BME280;38381;53.688;10.776;2023-03-12T10:13:14;100631.22;;;3.23;83.33
52469;BME280;38381;53.688;10.776;2023-03-12T10:24:05;100631.34;;;3.26;79.74
52469;BME280;38381;53.688;10.776;2023-03-12T10:34:48;100606.72;;;3.57;77.44
52469;BME280;38381;53.688;10.776;2023-03-12T10:39:50;100576.03;;;3.60;78.04
52469;BME280;38381;53.688;10.776;2023-03-12T10:44:53;100560.25;;;3.48;76.46
52469;BME280;38381;53.688;10.776;2023-03-12T10:50:11;100579.53;;;3.35;75.23
52469;BME280;38381;53.688;10.776;2023-03-12T10:55:21;100543.63;;;3.62;74.07
52469;BME280;38381;53.688;10.776;2023-03-12T11:00:28;100554.63;;;3.87;73.69
52469;BME280;38381;53.688;10.776;2023-03-12T11:05:32;100550.69;;;3.69;74.07
52469;BME280;38381;53.688;10.776;2023-03-12T11:10:40;100542.03;;;3.38;73.99
52469;BME280;38381;53.688;10.776;2023-03-12T11:15:42;100528.53;;;3.44;72.67
52469;BME280;38381;53.688;10.776;2023-03-12T11:20:42;100519.34;;;3.23;74.12
52469;BME280;38381;53.688;10.776;2023-03-12T11:25:54;100505.59;;;3.21;73.69
52469;BME280;38381;53.688;10.776;2023-03-12T11:30:56;100485.81;;;3.16;70.95
52469;BME280;38381;53.688;10.776;2023-03-12T11:51:55;100511.66;;;3.51;68.96
52469;BME280;38381;53.688;10.776;2023-03-12T12:02:48;100501.50;;;3.54;68.38
52469;BME280;38381;53.688;10.776;2023-03-12T12:08:16;100507.28;;;3.47;69.38
52469;BME280;38381;53.688;10.776;2023-03-12T12:39:34;100452.16;;;3.34;70.25
52469;BME280;38381;53.688;10.776;2023-03-12T12:44:42;100450.94;;;3.21;70.41
52469;BME280;38381;53.688;10.776;2023-03-12T12:49:48;100437.81;;;3.39;69.12
52469;BME280;38381;53.688;10.776;2023-03-12T12:54:53;100448.06;;;3.39;68.53
52469;BME280;38381;53.688;10.776;2023-03-12T13:00:12;100441.31;;;3.14;67.93
52469;BME280;38381;53.688;10.776;2023-03-12T13:05:19;100434.91;;;2.74;70.59
52469;BME280;38381;53.688;10.776;2023-03-12T13:10:49;100427.09;;;2.96;71.14
52469;BME280;38381;53.688;10.776;2023-03-12T13:15:50;100424.59;;;2.71;72.32
52469;BME280;38381;53.688;10.776;2023-03-12T13:36:27;100397.13;;;2.67;75.89
52469;BME280;38381;53.688;10.776;2023-03-12T13:41:39;100371.47;;;2.65;75.18
52469;BME280;38381;53.688;10.776;2023-03-12T13:46:41;100358.09;;;2.74;75.95
52469;BME280;38381;53.688;10.776;2023-03-12T13:51:46;100363.22;;;2.74;75.50
52469;BME280;38381;53.688;10.776;2023-03-12T13:57:03;100347.78;;;2.45;75.53
52469;BME280;38381;53.688;10.776;2023-03-12T14:02:21;100365.91;;;2.51;75.51
52469;BME280;38381;53.688;10.776;2023-03-12T14:12:57;100328.69;;;2.35;75.97
52469;BME280;38381;53.688;10.776;2023-03-12T14:18:03;100334.47;;;2.55;76.14
52469;BME280;38381;53.688;10.776;2023-03-12T14:23:13;100335.44;;;2.32;77.70
52469;BME280;38381;53.688;10.776;2023-03-12T14:28:19;100332.69;;;2.27;77.41
52469;BME280;38381;53.688;10.776;2023-03-12T14:33:20;100329.19;;;2.24;78.28
52469;BME280;38381;53.688;10.776;2023-03-12T14:38:29;100318.97;;;2.51;77.52
52469;BME280;38381;53.688;10.776;2023-03-12T14:43:33;100323.09;;;2.20;78.02
52469;BME280;38381;53.688;10.776;2023-03-12T14:48:35;100308.16;;;2.32;79.27
52469;BME280;38381;53.688;10.776;2023-03-12T14:53:37;100284.88;;;1.99;81.17
52469;BME280;38381;53.688;10.776;2023-03-12T14:58:44;100266.75;;;2.18;81.72
52469;BME280;38381;53.688;10.776;2023-03-12T15:03:51;100273.88;;;2.01;83.30
52469;BME280;38381;53.688;10.776;2023-03-12T15:08:52;100278.81;;;1.71;85.73
52469;BME280;38381;53.688;10.776;2023-03-12T15:13:55;100270.16;;;1.66;88.06
52469;BME280;38381;53.688;10.776;2023-03-12T15:19:01;100269.84;;;1.83;88.83
52469;BME280;38381;53.688;10.776;2023-03-12T15:24:03;100257.78;;;1.78;89.29
52469;BME280;38381;53.688;10.776;2023-03-12T15:29:19;100247.75;;;1.35;90.57
52469;BME280;38381;53.688;10.776;2023-03-12T15:34:36;100247.34;;;1.72;90.58
52469;BME280;38381;53.688;10.776;2023-03-12T15:39:37;100233.91;;;1.28;92.38
52469;BME280;38381;53.688;10.776;2023-03-12T15:44:52;100218.28;;;1.20;93.78
52469;BME280;38381;53.688;10.776;2023-03-12T15:49:57;100224.06;;;1.15;95.10
52469;BME280;38381;53.688;10.776;2023-03-12T16:05:11;100196.34;;;1.02;97.17
52469;BME280;38381;53.688;10.776;2023-03-12T16:10:17;100200.31;;;1.17;96.37
52469;BME280;38381;53.688;10.776;2023-03-12T16:15:25;100199.59;;;0.97;97.60
52469;BME280;38381;53.688;10.776;2023-03-12T16:20:30;100197.66;;;0.90;97.88
52469;BME280;38381;53.688;10.776;2023-03-12T16:25:30;100186.69;;;0.93;97.87
52469;BME280;38381;53.688;10.776;2023-03-12T16:30:33;100186.03;;;0.98;98.12
52469;BME280;38381;53.688;10.776;2023-03-12T16:35:34;100185.38;;;0.80;98.38
52469;BME280;38381;53.688;10.776;2023-03-12T16:40:37;100170.72;;;0.98;98.34
52469;BME280;38381;53.688;10.776;2023-03-12T16:45:41;100174.56;;;0.87;98.52
52469;BME280;38381;53.688;10.776;2023-03-12T16:50:48;100168.00;;;0.70;98.56
52469;BME280;38381;53.688;10.776;2023-03-12T16:55:52;100163.19;;;0.79;98.39
52469;BME280;38381;53.688;10.776;2023-03-12T17:00:53;100161.81;;;0.65;99.11
52469;BME280;38381;53.688;10.776;2023-03-12T17:05:54;100157.44;;;0.60;100.00
52469;BME280;38381;53.688;10.776;2023-03-12T17:10:55;100154.81;;;0.59;100.00
52469;BME280;38381;53.688;10.776;2023-03-12T17:15:55;100148.72;;;0.78;100.00
52469;BME280;38381;53.688;10.776;2023-03-12T17:20:56;100142.13;;;0.85;100.00
52469;BME280;38381;53.688;10.776;2023-03-12T17:25:56;100141.31;;;0.62;100.00
52469;BME280;38381;53.688;10.776;2023-03-12T17:30:57;100146.88;;;0.74;100.00
52469;BME280;38381;53.688;10.776;2023-03-12T17:35:59;100146.44;;;0.62;100.00
52469;BME280;38381;53.688;10.776;2023-03-12T17:41:01;100154.13;;;0.87;100.00
52469;BME280;38381;53.688;10.776;2023-03-12T17:46:06;100158.72;;;0.73;100.00
52469;BME280;38381;53.688;10.776;2023-03-12T17:51:08;100137.84;;;0.59;100.00
52469;BME280;38381;53.688;10.776;2023-03-12T17:56:12;100122.75;;;0.66;100.00
52469;BME280;38381;53.688;10.776;2023-03-12T18:01:15;100147.41;;;1.13;100.00
52469;BME280;38381;53.688;10.776;2023-03-12T18:06:16;100127.81;;;0.88;100.00
52469;BME280;38381;53.688;10.776;2023-03-12T18:11:16;100133.28;;;0.99;100.00
52469;BME280;38381;53.688;10.776;2023-03-12T18:16:17;100131.22;;;1.13;100.00
52469;BME280;38381;53.688;10.776;2023-03-12T18:21:17;100138.31;;;0.97;100.00
52469;BME280;38381;53.688;10.776;2023-03-12T18:26:17;100135.06;;;1.02;100.00
52469;BME280;38381;53.688;10.776;2023-03-12T18:31:18;100131.03;;;1.08;100.00
52469;BME280;38381;53.688;10.776;2023-03-12T18:36:21;100118.75;;;1.22;100.00
52469;BME280;38381;53.688;10.776;2023-03-12T18:41:21;100108.44;;;1.19;100.00
52469;BME280;38381;53.688;10.776;2023-03-12T18:46:27;100105.38;;;1.29;100.00
52469;BME280;38381;53.688;10.776;2023-03-12T18:51:28;100092.69;;;1.32;100.00
52469;BME280;38381;53.688;10.776;2023-03-12T18:56:28;100094.66;;;1.41;100.00
52469;BME280;38381;53.688;10.776;2023-03-12T19:01:28;100096.66;;;1.50;100.00
52469;BME280;38381;53.688;10.776;2023-03-12T19:06:29;100111.41;;;1.58;100.00
52469;BME280;38381;53.688;10.776;2023-03-12T19:11:29;100100.34;;;1.58;100.00
52469;BME280;38381;53.688;10.776;2023-03-12T19:16:30;100094.53;;;1.64;100.00
52469;BME280;38381;53.688;10.776;2023-03-12T19:21:30;100085.59;;;1.76;100.00
52469;BME280;38381;53.688;10.776;2023-03-12T19:26:31;100090.97;;;1.86;100.00
52469;BME280;38381;53.688;10.776;2023-03-12T19:31:31;100085.84;;;1.86;100.00
52469;BME280;38381;53.688;10.776;2023-03-12T19:36:32;100090.34;;;1.93;100.00
52469;BME280;38381;53.688;10.776;2023-03-12T19:41:32;100082.06;;;2.01;100.00
52469;BME280;38381;53.688;10.776;2023-03-12T19:46:32;100088.13;;;2.34;100.00
52469;BME280;38381;53.688;10.776;2023-03-12T19:51:33;100084.31;;;2.19;100.00
52469;BME280;38381;53.688;10.776;2023-03-12T19:56:33;100090.59;;;2.31;100.00
52469;BME280;38381;53.688;10.776;2023-03-12T20:01:34;100089.69;;;2.59;100.00
52469;BME280;38381;53.688;10.776;2023-03-12T20:06:34;100090.09;;;2.74;100.00
52469;BME280;38381;53.688;10.776;2023-03-12T20:11:35;100076.38;;;2.71;100.00
52469;BME280;38381;53.688;10.776;2023-03-12T20:16:35;100075.53;;;2.72;100.00
52469;BME280;38381;53.688;10.776;2023-03-12T20:21:36;100080.44;;;2.96;100.00
52469;BME280;38381;53.688;10.776;2023-03-12T20:26:37;100076.94;;;2.92;100.00
52469;BME280;38381;53.688;10.776;2023-03-12T20:31:41;100075.59;;;3.07;100.00
52469;BME280;38381;53.688;10.776;2023-03-12T20:36:41;100076.00;;;3.22;100.00
52469;BME280;38381;53.688;10.776;2023-03-12T20:41:42;100077.72;;;3.23;100.00
52469;BME280;38381;53.688;10.776;2023-03-12T20:46:42;100054.34;;;3.46;100.00
52469;BME280;38381;53.688;10.776;2023-03-12T20:51:43;100062.94;;;3.48;100.00
52469;BME280;38381;53.688;10.776;2023-03-12T20:56:44;100076.19;;;3.66;100.00
52469;BME280;38381;53.688;10.776;2023-03-12T21:01:44;100070.72;;;3.89;100.00
52469;BME280;38381;53.688;10.776;2023-03-12T21:06:45;100059.50;;;3.85;100.00
52469;BME280;38381;53.688;10.776;2023-03-12T21:11:46;100066.44;;;3.88;100.00
52469;BME280;38381;53.688;10.776;2023-03-12T21:16:47;100045.66;;;4.16;100.00
52469;BME280;38381;53.688;10.776;2023-03-12T21:21:47;100028.34;;;4.08;100.00
52469;BME280;38381;53.688;10.776;2023-03-12T21:26:48;100040.53;;;4.16;100.00
52469;BME280;38381;53.688;10.776;2023-03-12T21:31:48;100045.72;;;4.19;100.00
52469;BME280;38381;53.688;10.776;2023-03-12T21:36:50;100043.63;;;4.44;100.00
52469;BME280;38381;53.688;10.776;2023-03-12T21:41:51;100041.69;;;4.31;100.00
52469;BME280;38381;53.688;10.776;2023-03-12T21:46:51;100042.97;;;4.54;100.00
52469;BME280;38381;53.688;10.776;2023-03-12T21:51:52;100036.28;;;4.62;100.00
52469;BME280;38381;53.688;10.776;2023-03-12T21:56:52;100022.41;;;4.51;100.00
52469;BME280;38381;53.688;10.776;2023-03-12T22:01:53;100024.19;;;4.55;100.00
52469;BME280;38381;53.688;10.776;2023-03-12T22:06:53;100021.88;;;4.71;100.00
52469;BME280;38381;53.688;10.776;2023-03-12T22:11:55;100021.97;;;4.75;100.00
52469;BME280;38381;53.688;10.776;2023-03-12T22:16:56;100014.38;;;4.80;100.00
52469;BME280;38381;53.688;10.776;2023-03-12T22:21:56;100003.50;;;4.98;100.00
52469;BME280;38381;53.688;10.776;2023-03-12T22:26:57;99989.97;;;5.08;100.00
52469;BME280;38381;53.688;10.776;2023-03-12T22:31:57;99986.88;;;5.28;100.00
52469;BME280;38381;53.688;10.776;2023-03-12T22:36:57;99975.28;;;5.56;100.00
52469;BME280;38381;53.688;10.776;2023-03-12T22:41:58;99980.38;;;5.53;100.00
52469;BME280;38381;53.688;10.776;2023-03-12T22:46:58;99968.13;;;5.36;100.00
52469;BME280;38381;53.688;10.776;2023-03-12T22:51:59;99965.69;;;5.44;100.00
52469;BME280;38381;53.688;10.776;2023-03-12T22:56:59;99958.09;;;5.53;100.00
52469;BME280;38381;53.688;10.776;2023-03-12T23:01:59;99958.81;;;5.41;100.00
52469;BME280;38381;53.688;10.776;2023-03-12T23:07:00;99955.44;;;5.47;100.00
52469;BME280;38381;53.688;10.776;2023-03-12T23:12:00;99951.41;;;5.64;100.00
52469;BME280;38381;53.688;10.776;2023-03-12T23:17:01;99939.63;;;5.83;100.00
52469;BME280;38381;53.688;10.776;2023-03-12T23:22:01;99954.13;;;5.77;100.00
52469;BME280;38381;53.688;10.776;2023-03-12T23:27:02;99941.06;;;5.61;100.00
52469;BME280;38381;53.688;10.776;2023-03-12T23:32:03;99936.88;;;5.68;100.00
52469;BME280;38381;53.688;10.776;2023-03-12T23:37:03;99920.56;;;5.68;100.00
52469;BME280;38381;53.688;10.776;2023-03-12T23:42:04;99908.56;;;5.70;100.00
52469;BME280;38381;53.688;10.776;2023-03-12T23:47:05;99914.41;;;5.56;100.00
52469;BME280;38381;53.688;10.776;2023-03-12T23:52:05;99912.59;;;5.48;100.00
52469;BME280;38381;53.688;10.776;2023-03-12T23:57:05;99915.41;;;5.68;100.00
